sensor_id;sensor_type;location;lat;lon;timestamp;P1;durP1;ratioP1;P2;durP2;ratioP2
71236;SDS011;58984;51.960;5.582;2022-11-04T00:01:45;4.40;;;2.70;;
71236;SDS011;58984;51.960;5.582;2022-11-04T00:04:12;5.72;;;2.90;;
71236;SDS011;58984;51.960;5.582;2022-11-04T00:06:40;3.70;;;2.50;;
71236;SDS011;58984;51.960;5.582;2022-11-04T00:09:08;3.85;;;3.17;;
71236;SDS011;58984;51.960;5.582;2022-11-04T00:11:36;6.75;;;2.88;;
71236;SDS011;58984;51.960;5.582;2022-11-04T00:14:21;2.92;;;2.60;;
71236;SDS011;58984;51.960;5.582;2022-11-04T00:16:47;5.47;;;2.47;;
71236;SDS011;58984;51.960;5.582;2022-11-04T00:19:31;3.53;;;2.97;;
71236;SDS011;58984;51.960;5.582;2022-11-04T00:22:17;7.72;;;3.85;;
71236;SDS011;58984;51.960;5.582;2022-11-04T00:25:01;8.95;;;4.10;;
71236;SDS011;58984;51.960;5.582;2022-11-04T00:27:46;8.10;;;4.43;;
71236;SDS011;58984;51.960;5.582;2022-11-04T00:30:30;8.02;;;5.43;;
71236;SDS011;58984;51.960;5.582;2022-11-04T00:32:56;7.03;;;4.90;;
71236;SDS011;58984;51.960;5.582;2022-11-04T00:35:40;5.15;;;4.60;;
71236;SDS011;58984;51.960;5.582;2022-11-04T00:38:11;8.32;;;4.47;;
71236;SDS011;58984;51.960;5.582;2022-11-04T00:40:37;5.97;;;4.63;;
71236;SDS011;58984;51.960;5.582;2022-11-04T00:43:02;8.85;;;4.82;;
71236;SDS011;58984;51.960;5.582;2022-11-04T00:45:28;6.60;;;4.07;;
71236;SDS011;58984;51.960;5.582;2022-11-04T00:47:53;5.40;;;3.30;;
71236;SDS011;58984;51.960;5.582;2022-11-04T00:50:19;4.50;;;2.40;;
71236;SDS011;58984;51.960;5.582;2022-11-04T00:52:44;3.83;;;2.25;;
71236;SDS011;58984;51.960;5.582;2022-11-04T00:55:10;3.13;;;2.00;;
71236;SDS011;58984;51.960;5.582;2022-11-04T00:57:36;2.55;;;1.70;;
71236;SDS011;58984;51.960;5.582;2022-11-04T01:00:01;2.03;;;1.50;;
71236;SDS011;58984;51.960;5.582;2022-11-04T01:02:27;2.15;;;1.33;;
71236;SDS011;58984;51.960;5.582;2022-11-04T01:04:53;4.10;;;1.27;;
71236;SDS011;58984;51.960;5.582;2022-11-04T01:07:18;1.35;;;0.90;;
71236;SDS011;58984;51.960;5.582;2022-11-04T01:09:44;1.13;;;0.90;;
71236;SDS011;58984;51.960;5.582;2022-11-04T01:12:10;1.35;;;0.90;;
71236;SDS011;58984;51.960;5.582;2022-11-04T01:14:35;0.70;;;0.70;;
71236;SDS011;58984;51.960;5.582;2022-11-04T01:17:01;0.82;;;0.80;;
71236;SDS011;58984;51.960;5.582;2022-11-04T01:19:26;3.15;;;1.08;;
71236;SDS011;58984;51.960;5.582;2022-11-04T01:21:52;1.50;;;0.70;;
71236;SDS011;58984;51.960;5.582;2022-11-04T01:24:17;0.50;;;0.50;;
71236;SDS011;58984;51.960;5.582;2022-11-04T01:26:43;0.73;;;0.73;;
71236;SDS011;58984;51.960;5.582;2022-11-04T01:29:09;3.30;;;0.90;;
71236;SDS011;58984;51.960;5.582;2022-11-04T01:31:35;2.70;;;1.00;;
71236;SDS011;58984;51.960;5.582;2022-11-04T01:34:00;2.20;;;0.90;;
71236;SDS011;58984;51.960;5.582;2022-11-04T01:36:26;4.18;;;1.00;;
71236;SDS011;58984;51.960;5.582;2022-11-04T01:38:53;1.27;;;0.95;;
71236;SDS011;58984;51.960;5.582;2022-11-04T01:41:23;2.25;;;1.15;;
71236;SDS011;58984;51.960;5.582;2022-11-04T01:43:52;1.60;;;0.90;;
71236;SDS011;58984;51.960;5.582;2022-11-04T01:49:34;2.53;;;1.40;;
71236;SDS011;58984;51.960;5.582;2022-11-04T01:52:05;1.58;;;1.48;;
71236;SDS011;58984;51.960;5.582;2022-11-04T01:54:35;2.67;;;1.73;;
71236;SDS011;58984;51.960;5.582;2022-11-04T01:57:03;2.25;;;1.85;;
71236;SDS011;58984;51.960;5.582;2022-11-04T01:59:33;3.65;;;2.38;;
71236;SDS011;58984;51.960;5.582;2022-11-04T02:02:01;3.83;;;2.60;;
71236;SDS011;58984;51.960;5.582;2022-11-04T02:04:27;4.20;;;2.88;;
71236;SDS011;58984;51.960;5.582;2022-11-04T02:06:56;7.35;;;2.90;;
71236;SDS011;58984;51.960;5.582;2022-11-04T02:09:24;5.25;;;3.70;;
71236;SDS011;58984;51.960;5.582;2022-11-04T02:11:52;5.72;;;3.13;;
71236;SDS011;58984;51.960;5.582;2022-11-04T02:14:36;5.70;;;3.88;;
71236;SDS011;58984;51.960;5.582;2022-11-04T02:20:24;5.53;;;4.13;;
71236;SDS011;58984;51.960;5.582;2022-11-04T02:23:08;5.38;;;3.97;;
71236;SDS011;58984;51.960;5.582;2022-11-04T02:25:55;5.00;;;3.95;;
71236;SDS011;58984;51.960;5.582;2022-11-04T02:29:00;5.20;;;3.58;;
71236;SDS011;58984;51.960;5.582;2022-11-04T02:34:24;8.93;;;5.20;;
71236;SDS011;58984;51.960;5.582;2022-11-04T02:40:47;8.48;;;5.30;;
71236;SDS011;58984;51.960;5.582;2022-11-04T02:45:37;9.60;;;5.63;;
71236;SDS011;58984;51.960;5.582;2022-11-04T02:48:10;8.13;;;6.03;;
71236;SDS011;58984;51.960;5.582;2022-11-04T02:50:43;7.20;;;5.65;;
71236;SDS011;58984;51.960;5.582;2022-11-04T02:54:23;11.10;;;6.35;;
71236;SDS011;58984;51.960;5.582;2022-11-04T02:56:38;11.02;;;7.05;;
71236;SDS011;58984;51.960;5.582;2022-11-04T02:59:10;9.40;;;6.32;;
71236;SDS011;58984;51.960;5.582;2022-11-04T03:01:42;11.38;;;7.05;;
71236;SDS011;58984;51.960;5.582;2022-11-04T03:04:17;9.85;;;6.70;;
71236;SDS011;58984;51.960;5.582;2022-11-04T03:06:49;12.30;;;7.15;;
71236;SDS011;58984;51.960;5.582;2022-11-04T03:09:17;13.85;;;7.90;;
71236;SDS011;58984;51.960;5.582;2022-11-04T03:11:45;15.55;;;8.80;;
71236;SDS011;58984;51.960;5.582;2022-11-04T03:14:22;16.90;;;8.32;;
71236;SDS011;58984;51.960;5.582;2022-11-04T03:16:55;12.38;;;8.68;;
71236;SDS011;58984;51.960;5.582;2022-11-04T03:19:36;13.13;;;8.63;;
71236;SDS011;58984;51.960;5.582;2022-11-04T03:22:14;17.00;;;10.30;;
71236;SDS011;58984;51.960;5.582;2022-11-04T03:24:42;19.23;;;10.77;;
71236;SDS011;58984;51.960;5.582;2022-11-04T03:27:18;15.45;;;10.38;;
71236;SDS011;58984;51.960;5.582;2022-11-04T03:30:05;16.02;;;10.57;;
71236;SDS011;58984;51.960;5.582;2022-11-04T03:35:05;17.20;;;11.65;;
71236;SDS011;58984;51.960;5.582;2022-11-04T03:37:32;17.48;;;12.20;;
71236;SDS011;58984;51.960;5.582;2022-11-04T03:39:57;17.20;;;11.30;;
71236;SDS011;58984;51.960;5.582;2022-11-04T03:42:23;17.33;;;10.40;;
71236;SDS011;58984;51.960;5.582;2022-11-04T03:44:54;18.77;;;12.02;;
71236;SDS011;58984;51.960;5.582;2022-11-04T03:47:22;17.80;;;12.10;;
71236;SDS011;58984;51.960;5.582;2022-11-04T03:49:51;19.60;;;11.80;;
71236;SDS011;58984;51.960;5.582;2022-11-04T03:52:21;19.35;;;11.52;;
71236;SDS011;58984;51.960;5.582;2022-11-04T03:54:47;14.90;;;10.10;;
71236;SDS011;58984;51.960;5.582;2022-11-04T04:00:28;14.70;;;8.95;;
71236;SDS011;58984;51.960;5.582;2022-11-04T04:08:41;10.10;;;7.20;;
71236;SDS011;58984;51.960;5.582;2022-11-04T04:16:26;10.50;;;7.03;;
71236;SDS011;58984;51.960;5.582;2022-11-04T04:19:24;10.90;;;6.63;;
71236;SDS011;58984;51.960;5.582;2022-11-04T04:21:52;9.88;;;6.70;;
71236;SDS011;58984;51.960;5.582;2022-11-04T04:24:25;12.48;;;6.93;;
71236;SDS011;58984;51.960;5.582;2022-11-04T04:27:14;10.35;;;6.75;;
71236;SDS011;58984;51.960;5.582;2022-11-04T04:29:55;10.63;;;6.30;;
71236;SDS011;58984;51.960;5.582;2022-11-04T04:32:28;13.48;;;6.47;;
71236;SDS011;58984;51.960;5.582;2022-11-04T04:34:57;8.25;;;6.30;;
71236;SDS011;58984;51.960;5.582;2022-11-04T04:37:41;9.15;;;6.32;;
71236;SDS011;58984;51.960;5.582;2022-11-04T04:40:10;7.97;;;5.38;;
71236;SDS011;58984;51.960;5.582;2022-11-04T04:42:58;10.43;;;5.82;;
71236;SDS011;58984;51.960;5.582;2022-11-04T04:45:43;7.32;;;5.47;;
71236;SDS011;58984;51.960;5.582;2022-11-04T04:50:41;12.32;;;6.10;;
71236;SDS011;58984;51.960;5.582;2022-11-04T04:53:10;8.73;;;5.70;;
71236;SDS011;58984;51.960;5.582;2022-11-04T04:55:35;11.07;;;5.70;;
71236;SDS011;58984;51.960;5.582;2022-11-04T04:58:01;7.03;;;4.93;;
71236;SDS011;58984;51.960;5.582;2022-11-04T05:00:26;8.25;;;5.57;;
71236;SDS011;58984;51.960;5.582;2022-11-04T05:02:53;9.57;;;5.25;;
71236;SDS011;58984;51.960;5.582;2022-11-04T05:05:18;10.65;;;5.40;;
71236;SDS011;58984;51.960;5.582;2022-11-04T05:07:44;8.23;;;5.13;;
71236;SDS011;58984;51.960;5.582;2022-11-04T05:10:11;9.43;;;5.57;;
71236;SDS011;58984;51.960;5.582;2022-11-04T05:12:38;8.35;;;4.88;;
71236;SDS011;58984;51.960;5.582;2022-11-04T05:15:23;9.82;;;5.20;;
71236;SDS011;58984;51.960;5.582;2022-11-04T05:18:00;9.35;;;5.03;;
71236;SDS011;58984;51.960;5.582;2022-11-04T05:20:26;6.75;;;5.32;;
71236;SDS011;58984;51.960;5.582;2022-11-04T05:22:53;8.18;;;4.80;;
71236;SDS011;58984;51.960;5.582;2022-11-04T05:25:18;7.80;;;4.88;;
71236;SDS011;58984;51.960;5.582;2022-11-04T05:27:44;10.95;;;5.40;;
71236;SDS011;58984;51.960;5.582;2022-11-04T05:30:10;8.50;;;4.57;;
71236;SDS011;58984;51.960;5.582;2022-11-04T05:32:35;8.43;;;4.50;;
71236;SDS011;58984;51.960;5.582;2022-11-04T05:35:01;8.45;;;5.43;;
71236;SDS011;58984;51.960;5.582;2022-11-04T05:37:27;8.65;;;5.10;;
71236;SDS011;58984;51.960;5.582;2022-11-04T05:39:52;8.00;;;4.90;;
71236;SDS011;58984;51.960;5.582;2022-11-04T05:42:18;8.68;;;4.75;;
71236;SDS011;58984;51.960;5.582;2022-11-04T05:44:43;9.07;;;4.53;;
71236;SDS011;58984;51.960;5.582;2022-11-04T05:47:09;8.48;;;4.90;;
71236;SDS011;58984;51.960;5.582;2022-11-04T05:49:35;5.82;;;4.28;;
71236;SDS011;58984;51.960;5.582;2022-11-04T05:52:00;7.07;;;4.80;;
71236;SDS011;58984;51.960;5.582;2022-11-04T05:54:26;9.38;;;5.00;;
71236;SDS011;58984;51.960;5.582;2022-11-04T05:56:51;7.32;;;4.25;;
71236;SDS011;58984;51.960;5.582;2022-11-04T05:59:17;7.97;;;4.47;;
71236;SDS011;58984;51.960;5.582;2022-11-04T06:01:43;8.77;;;3.97;;
71236;SDS011;58984;51.960;5.582;2022-11-04T06:04:13;7.45;;;4.18;;
71236;SDS011;58984;51.960;5.582;2022-11-04T06:06:40;6.53;;;4.10;;
71236;SDS011;58984;51.960;5.582;2022-11-04T06:09:06;7.25;;;4.00;;
71236;SDS011;58984;51.960;5.582;2022-11-04T06:11:32;4.63;;;3.70;;
71236;SDS011;58984;51.960;5.582;2022-11-04T06:13:58;8.88;;;4.18;;
71236;SDS011;58984;51.960;5.582;2022-11-04T06:16:24;6.45;;;4.13;;
71236;SDS011;58984;51.960;5.582;2022-11-04T06:18:50;6.43;;;3.63;;
71236;SDS011;58984;51.960;5.582;2022-11-04T06:23:46;7.50;;;3.88;;
71236;SDS011;58984;51.960;5.582;2022-11-04T06:26:12;9.35;;;4.32;;
71236;SDS011;58984;51.960;5.582;2022-11-04T06:28:38;6.50;;;3.50;;
71236;SDS011;58984;51.960;5.582;2022-11-04T06:31:04;8.88;;;3.85;;
71236;SDS011;58984;51.960;5.582;2022-11-04T06:33:32;8.60;;;5.07;;
71236;SDS011;58984;51.960;5.582;2022-11-04T06:35:58;13.93;;;8.18;;
71236;SDS011;58984;51.960;5.582;2022-11-04T06:38:25;20.58;;;10.95;;
71236;SDS011;58984;51.960;5.582;2022-11-04T06:40:53;22.73;;;13.57;;
71236;SDS011;58984;51.960;5.582;2022-11-04T06:43:18;33.50;;;16.65;;
71236;SDS011;58984;51.960;5.582;2022-11-04T06:45:44;37.55;;;20.02;;
71236;SDS011;58984;51.960;5.582;2022-11-04T06:48:16;46.03;;;22.35;;
71236;SDS011;58984;51.960;5.582;2022-11-04T06:50:42;40.17;;;20.88;;
71236;SDS011;58984;51.960;5.582;2022-11-04T06:53:07;40.40;;;20.42;;
71236;SDS011;58984;51.960;5.582;2022-11-04T06:55:33;38.17;;;17.92;;
71236;SDS011;58984;51.960;5.582;2022-11-04T06:57:58;31.83;;;16.52;;
71236;SDS011;58984;51.960;5.582;2022-11-04T07:00:24;31.58;;;15.63;;
71236;SDS011;58984;51.960;5.582;2022-11-04T07:02:49;27.15;;;13.68;;
71236;SDS011;58984;51.960;5.582;2022-11-04T07:05:15;22.20;;;11.07;;
71236;SDS011;58984;51.960;5.582;2022-11-04T07:07:41;17.20;;;10.68;;
71236;SDS011;58984;51.960;5.582;2022-11-04T07:10:07;17.67;;;10.50;;
71236;SDS011;58984;51.960;5.582;2022-11-04T07:12:33;14.23;;;8.40;;
71236;SDS011;58984;51.960;5.582;2022-11-04T07:14:58;14.38;;;8.27;;
71236;SDS011;58984;51.960;5.582;2022-11-04T07:17:24;13.50;;;7.72;;
71236;SDS011;58984;51.960;5.582;2022-11-04T07:19:49;10.05;;;7.30;;
71236;SDS011;58984;51.960;5.582;2022-11-04T07:22:15;13.45;;;6.35;;
71236;SDS011;58984;51.960;5.582;2022-11-04T07:24:40;12.52;;;5.82;;
71236;SDS011;58984;51.960;5.582;2022-11-04T07:27:07;13.48;;;6.47;;
71236;SDS011;58984;51.960;5.582;2022-11-04T07:29:33;14.40;;;5.82;;
71236;SDS011;58984;51.960;5.582;2022-11-04T07:31:58;7.28;;;4.90;;
71236;SDS011;58984;51.960;5.582;2022-11-04T07:34:24;12.80;;;5.32;;
71236;SDS011;58984;51.960;5.582;2022-11-04T07:36:49;10.38;;;4.63;;
71236;SDS011;58984;51.960;5.582;2022-11-04T07:39:15;5.75;;;3.65;;
71236;SDS011;58984;51.960;5.582;2022-11-04T07:41:41;12.40;;;5.30;;
71236;SDS011;58984;51.960;5.582;2022-11-04T07:44:09;6.18;;;4.30;;
71236;SDS011;58984;51.960;5.582;2022-11-04T07:46:35;8.40;;;4.30;;
71236;SDS011;58984;51.960;5.582;2022-11-04T07:49:01;8.77;;;4.15;;
71236;SDS011;58984;51.960;5.582;2022-11-04T07:51:27;8.98;;;4.10;;
71236;SDS011;58984;51.960;5.582;2022-11-04T07:53:54;5.80;;;3.50;;
71236;SDS011;58984;51.960;5.582;2022-11-04T07:56:20;7.10;;;3.75;;
71236;SDS011;58984;51.960;5.582;2022-11-04T07:58:48;6.05;;;4.35;;
71236;SDS011;58984;51.960;5.582;2022-11-04T08:01:15;6.93;;;3.53;;
71236;SDS011;58984;51.960;5.582;2022-11-04T08:03:42;10.57;;;3.78;;
71236;SDS011;58984;51.960;5.582;2022-11-04T08:06:09;4.13;;;3.33;;
71236;SDS011;58984;51.960;5.582;2022-11-04T08:08:36;5.55;;;3.38;;
71236;SDS011;58984;51.960;5.582;2022-11-04T08:11:03;6.18;;;3.60;;
71236;SDS011;58984;51.960;5.582;2022-11-04T08:13:32;7.80;;;3.72;;
71236;SDS011;58984;51.960;5.582;2022-11-04T08:16:03;5.85;;;3.65;;
71236;SDS011;58984;51.960;5.582;2022-11-04T08:18:31;6.70;;;4.10;;
71236;SDS011;58984;51.960;5.582;2022-11-04T08:20:58;8.73;;;3.50;;
71236;SDS011;58984;51.960;5.582;2022-11-04T08:23:24;7.35;;;3.75;;
71236;SDS011;58984;51.960;5.582;2022-11-04T08:25:50;8.25;;;3.60;;
71236;SDS011;58984;51.960;5.582;2022-11-04T08:28:16;6.20;;;3.47;;
71236;SDS011;58984;51.960;5.582;2022-11-04T08:30:50;6.22;;;3.60;;
71236;SDS011;58984;51.960;5.582;2022-11-04T08:33:17;8.05;;;3.70;;
71236;SDS011;58984;51.960;5.582;2022-11-04T08:35:43;6.30;;;2.83;;
71236;SDS011;58984;51.960;5.582;2022-11-04T08:38:08;6.75;;;3.80;;
71236;SDS011;58984;51.960;5.582;2022-11-04T08:40:35;5.90;;;3.58;;
71236;SDS011;58984;51.960;5.582;2022-11-04T08:43:00;6.43;;;3.53;;
71236;SDS011;58984;51.960;5.582;2022-11-04T08:45:26;5.63;;;3.67;;
71236;SDS011;58984;51.960;5.582;2022-11-04T08:47:52;10.93;;;4.00;;
71236;SDS011;58984;51.960;5.582;2022-11-04T08:50:17;8.27;;;4.30;;
71236;SDS011;58984;51.960;5.582;2022-11-04T08:52:43;8.80;;;4.43;;
71236;SDS011;58984;51.960;5.582;2022-11-04T08:55:09;8.02;;;4.22;;
71236;SDS011;58984;51.960;5.582;2022-11-04T08:57:34;7.93;;;4.30;;
71236;SDS011;58984;51.960;5.582;2022-11-04T09:00:00;5.43;;;3.95;;
71236;SDS011;58984;51.960;5.582;2022-11-04T09:02:27;8.35;;;4.00;;
71236;SDS011;58984;51.960;5.582;2022-11-04T09:04:53;6.18;;;3.88;;
71236;SDS011;58984;51.960;5.582;2022-11-04T09:07:18;8.02;;;3.75;;
71236;SDS011;58984;51.960;5.582;2022-11-04T09:09:44;8.35;;;4.10;;
71236;SDS011;58984;51.960;5.582;2022-11-04T09:12:09;15.10;;;5.82;;
71236;SDS011;58984;51.960;5.582;2022-11-04T09:14:35;10.40;;;4.72;;
71236;SDS011;58984;51.960;5.582;2022-11-04T09:17:01;9.70;;;4.65;;
71236;SDS011;58984;51.960;5.582;2022-11-04T09:19:27;7.13;;;4.75;;
71236;SDS011;58984;51.960;5.582;2022-11-04T09:21:52;6.07;;;4.25;;
71236;SDS011;58984;51.960;5.582;2022-11-04T09:24:18;9.13;;;3.83;;
71236;SDS011;58984;51.960;5.582;2022-11-04T09:26:44;7.85;;;3.53;;
71236;SDS011;58984;51.960;5.582;2022-11-04T09:29:09;9.98;;;4.13;;
71236;SDS011;58984;51.960;5.582;2022-11-04T09:31:35;7.88;;;4.45;;
71236;SDS011;58984;51.960;5.582;2022-11-04T09:34:01;6.68;;;4.45;;
71236;SDS011;58984;51.960;5.582;2022-11-04T09:36:26;6.82;;;4.00;;
71236;SDS011;58984;51.960;5.582;2022-11-04T09:38:53;8.40;;;4.32;;
71236;SDS011;58984;51.960;5.582;2022-11-04T09:41:27;7.93;;;3.78;;
71236;SDS011;58984;51.960;5.582;2022-11-04T09:49:13;7.18;;;3.40;;
71236;SDS011;58984;51.960;5.582;2022-11-04T09:51:40;7.22;;;4.45;;
71236;SDS011;58984;51.960;5.582;2022-11-04T09:54:12;6.93;;;3.92;;
71236;SDS011;58984;51.960;5.582;2022-11-04T09:56:43;10.48;;;4.47;;
71236;SDS011;58984;51.960;5.582;2022-11-04T09:59:12;6.70;;;3.53;;
71236;SDS011;58984;51.960;5.582;2022-11-04T10:01:54;6.05;;;3.80;;
71236;SDS011;58984;51.960;5.582;2022-11-04T10:07:30;8.80;;;4.65;;
71236;SDS011;58984;51.960;5.582;2022-11-04T10:12:39;10.15;;;4.53;;
71236;SDS011;58984;51.960;5.582;2022-11-04T10:18:16;5.20;;;3.80;;
71236;SDS011;58984;51.960;5.582;2022-11-04T10:23:40;8.48;;;4.57;;
71236;SDS011;58984;51.960;5.582;2022-11-04T10:29:01;7.97;;;4.63;;
71236;SDS011;58984;51.960;5.582;2022-11-04T10:31:29;6.28;;;4.18;;
71236;SDS011;58984;51.960;5.582;2022-11-04T10:33:58;8.75;;;4.82;;
71236;SDS011;58984;51.960;5.582;2022-11-04T10:36:29;8.50;;;4.15;;
71236;SDS011;58984;51.960;5.582;2022-11-04T10:38:55;5.55;;;3.92;;
71236;SDS011;58984;51.960;5.582;2022-11-04T10:43:49;8.38;;;4.13;;
71236;SDS011;58984;51.960;5.582;2022-11-04T10:46:28;7.57;;;4.55;;
71236;SDS011;58984;51.960;5.582;2022-11-04T10:49:22;8.70;;;4.43;;
71236;SDS011;58984;51.960;5.582;2022-11-04T10:52:05;10.90;;;5.38;;
71236;SDS011;58984;51.960;5.582;2022-11-04T10:54:53;10.30;;;5.75;;
71236;SDS011;58984;51.960;5.582;2022-11-04T10:57:18;10.23;;;5.95;;
71236;SDS011;58984;51.960;5.582;2022-11-04T10:59:52;10.00;;;5.70;;
71236;SDS011;58984;51.960;5.582;2022-11-04T11:02:21;9.43;;;6.03;;
71236;SDS011;58984;51.960;5.582;2022-11-04T11:07:42;13.00;;;5.97;;
71236;SDS011;58984;51.960;5.582;2022-11-04T11:10:16;11.75;;;5.60;;
71236;SDS011;58984;51.960;5.582;2022-11-04T11:12:49;11.15;;;6.28;;
71236;SDS011;58984;51.960;5.582;2022-11-04T11:15:29;10.10;;;6.75;;
71236;SDS011;58984;51.960;5.582;2022-11-04T11:20:32;12.15;;;6.05;;
71236;SDS011;58984;51.960;5.582;2022-11-04T11:23:01;13.15;;;6.72;;
71236;SDS011;58984;51.960;5.582;2022-11-04T11:25:29;12.70;;;7.10;;
71236;SDS011;58984;51.960;5.582;2022-11-04T11:33:27;12.40;;;7.35;;
71236;SDS011;58984;51.960;5.582;2022-11-04T11:35:58;13.45;;;8.07;;
71236;SDS011;58984;51.960;5.582;2022-11-04T11:38:31;9.50;;;6.53;;
71236;SDS011;58984;51.960;5.582;2022-11-04T11:41:02;13.35;;;7.28;;
71236;SDS011;58984;51.960;5.582;2022-11-04T11:43:32;13.15;;;7.82;;
71236;SDS011;58984;51.960;5.582;2022-11-04T11:45:59;15.73;;;8.05;;
71236;SDS011;58984;51.960;5.582;2022-11-04T11:51:02;9.63;;;6.75;;
71236;SDS011;58984;51.960;5.582;2022-11-04T11:53:28;12.52;;;8.02;;
71236;SDS011;58984;51.960;5.582;2022-11-04T12:01:22;9.05;;;6.35;;
71236;SDS011;58984;51.960;5.582;2022-11-04T12:04:00;10.23;;;7.22;;
71236;SDS011;58984;51.960;5.582;2022-11-04T12:12:00;8.70;;;6.25;;
71236;SDS011;58984;51.960;5.582;2022-11-04T12:25:21;12.55;;;7.50;;
71236;SDS011;58984;51.960;5.582;2022-11-04T12:28:06;12.30;;;7.57;;
71236;SDS011;58984;51.960;5.582;2022-11-04T12:36:58;14.20;;;7.55;;
71236;SDS011;58984;51.960;5.582;2022-11-04T12:47:36;10.63;;;7.57;;
71236;SDS011;58984;51.960;5.582;2022-11-04T12:52:56;9.38;;;7.20;;
71236;SDS011;58984;51.960;5.582;2022-11-04T12:55:42;8.93;;;7.45;;
71236;SDS011;58984;51.960;5.582;2022-11-04T12:58:59;10.60;;;7.38;;
71236;SDS011;58984;51.960;5.582;2022-11-04T13:01:45;11.45;;;6.78;;
71236;SDS011;58984;51.960;5.582;2022-11-04T13:05:17;10.27;;;6.47;;
71236;SDS011;58984;51.960;5.582;2022-11-04T13:07:21;10.10;;;6.90;;
71236;SDS011;58984;51.960;5.582;2022-11-04T13:10:06;7.35;;;6.22;;
71236;SDS011;58984;51.960;5.582;2022-11-04T13:12:59;9.35;;;6.57;;
71236;SDS011;58984;51.960;5.582;2022-11-04T13:15:26;8.93;;;6.82;;
71236;SDS011;58984;51.960;5.582;2022-11-04T13:18:03;12.05;;;6.72;;
71236;SDS011;58984;51.960;5.582;2022-11-04T13:20:44;9.00;;;6.85;;
71236;SDS011;58984;51.960;5.582;2022-11-04T13:23:27;8.73;;;6.43;;
71236;SDS011;58984;51.960;5.582;2022-11-04T13:26:14;9.93;;;6.45;;
71236;SDS011;58984;51.960;5.582;2022-11-04T13:28:41;8.88;;;5.97;;
71236;SDS011;58984;51.960;5.582;2022-11-04T13:44:13;8.18;;;5.65;;
71236;SDS011;58984;51.960;5.582;2022-11-04T13:46:49;7.40;;;5.65;;
71236;SDS011;58984;51.960;5.582;2022-11-04T13:49:19;7.60;;;5.50;;
71236;SDS011;58984;51.960;5.582;2022-11-04T13:52:02;7.93;;;5.93;;
71236;SDS011;58984;51.960;5.582;2022-11-04T13:54:38;11.32;;;6.50;;
71236;SDS011;58984;51.960;5.582;2022-11-04T13:59:42;7.63;;;5.97;;
71236;SDS011;58984;51.960;5.582;2022-11-04T14:16:02;6.68;;;5.45;;
71236;SDS011;58984;51.960;5.582;2022-11-04T14:18:35;6.85;;;5.05;;
71236;SDS011;58984;51.960;5.582;2022-11-04T14:21:09;8.88;;;5.22;;
71236;SDS011;58984;51.960;5.582;2022-11-04T14:23:51;6.30;;;4.85;;
71236;SDS011;58984;51.960;5.582;2022-11-04T14:31:37;7.30;;;5.00;;
71236;SDS011;58984;51.960;5.582;2022-11-04T14:34:05;5.75;;;4.53;;
71236;SDS011;58984;51.960;5.582;2022-11-04T14:36:33;8.55;;;5.80;;
71236;SDS011;58984;51.960;5.582;2022-11-04T14:39:02;8.23;;;5.65;;
71236;SDS011;58984;51.960;5.582;2022-11-04T14:41:48;8.18;;;5.38;;
71236;SDS011;58984;51.960;5.582;2022-11-04T14:47:17;10.35;;;3.42;;
71236;SDS011;58984;51.960;5.582;2022-11-04T14:52:24;4.50;;;2.92;;
71236;SDS011;58984;51.960;5.582;2022-11-04T14:55:04;6.78;;;2.72;;
71236;SDS011;58984;51.960;5.582;2022-11-04T14:57:40;3.28;;;2.00;;
71236;SDS011;58984;51.960;5.582;2022-11-04T15:05:34;2.55;;;2.03;;
71236;SDS011;58984;51.960;5.582;2022-11-04T15:08:22;3.67;;;1.85;;
71236;SDS011;58984;51.960;5.582;2022-11-04T15:10:56;5.78;;;1.85;;
71236;SDS011;58984;51.960;5.582;2022-11-04T15:13:31;2.70;;;1.73;;
71236;SDS011;58984;51.960;5.582;2022-11-04T15:15:58;5.60;;;1.67;;
71236;SDS011;58984;51.960;5.582;2022-11-04T15:18:27;2.00;;;1.67;;
71236;SDS011;58984;51.960;5.582;2022-11-04T15:20:57;3.13;;;1.70;;
71236;SDS011;58984;51.960;5.582;2022-11-04T15:23:28;3.63;;;1.65;;
71236;SDS011;58984;51.960;5.582;2022-11-04T15:25:56;2.33;;;1.50;;
71236;SDS011;58984;51.960;5.582;2022-11-04T15:28:26;4.07;;;1.80;;
71236;SDS011;58984;51.960;5.582;2022-11-04T15:31:03;3.40;;;1.40;;
71236;SDS011;58984;51.960;5.582;2022-11-04T15:33:41;3.72;;;1.77;;
71236;SDS011;58984;51.960;5.582;2022-11-04T15:36:11;4.72;;;1.83;;
71236;SDS011;58984;51.960;5.582;2022-11-04T15:39:06;4.32;;;1.55;;
71236;SDS011;58984;51.960;5.582;2022-11-04T15:41:32;2.38;;;1.65;;
71236;SDS011;58984;51.960;5.582;2022-11-04T15:44:21;3.30;;;1.95;;
71236;SDS011;58984;51.960;5.582;2022-11-04T15:46:53;2.47;;;1.70;;
71236;SDS011;58984;51.960;5.582;2022-11-04T15:49:25;2.15;;;1.55;;
71236;SDS011;58984;51.960;5.582;2022-11-04T15:52:12;2.40;;;1.77;;
71236;SDS011;58984;51.960;5.582;2022-11-04T15:54:42;2.33;;;1.67;;
71236;SDS011;58984;51.960;5.582;2022-11-04T15:57:12;3.03;;;2.17;;
71236;SDS011;58984;51.960;5.582;2022-11-04T15:59:44;3.33;;;2.22;;
71236;SDS011;58984;51.960;5.582;2022-11-04T16:02:32;4.00;;;2.20;;
71236;SDS011;58984;51.960;5.582;2022-11-04T16:05:31;2.60;;;2.03;;
71236;SDS011;58984;51.960;5.582;2022-11-04T16:10:42;4.15;;;2.92;;
71236;SDS011;58984;51.960;5.582;2022-11-04T16:15:40;6.47;;;3.35;;
71236;SDS011;58984;51.960;5.582;2022-11-04T16:18:47;5.85;;;3.67;;
71236;SDS011;58984;51.960;5.582;2022-11-04T16:23:46;9.40;;;3.83;;
71236;SDS011;58984;51.960;5.582;2022-11-04T16:26:28;6.68;;;3.85;;
71236;SDS011;58984;51.960;5.582;2022-11-04T16:29:05;8.02;;;4.47;;
71236;SDS011;58984;51.960;5.582;2022-11-04T16:31:34;8.77;;;4.72;;
71236;SDS011;58984;51.960;5.582;2022-11-04T16:34:00;7.03;;;4.35;;
71236;SDS011;58984;51.960;5.582;2022-11-04T16:36:26;7.57;;;4.35;;
71236;SDS011;58984;51.960;5.582;2022-11-04T16:38:56;6.07;;;4.38;;
71236;SDS011;58984;51.960;5.582;2022-11-04T16:41:24;7.88;;;4.38;;
71236;SDS011;58984;51.960;5.582;2022-11-04T16:43:52;5.40;;;3.97;;
71236;SDS011;58984;51.960;5.582;2022-11-04T16:46:18;7.85;;;4.15;;
71236;SDS011;58984;51.960;5.582;2022-11-04T16:48:46;8.25;;;4.18;;
71236;SDS011;58984;51.960;5.582;2022-11-04T16:51:18;6.43;;;4.30;;
71236;SDS011;58984;51.960;5.582;2022-11-04T16:53:49;6.85;;;4.20;;
71236;SDS011;58984;51.960;5.582;2022-11-04T16:56:17;6.65;;;4.18;;
71236;SDS011;58984;51.960;5.582;2022-11-04T16:58:45;5.45;;;4.63;;
71236;SDS011;58984;51.960;5.582;2022-11-04T17:01:10;6.18;;;4.03;;
71236;SDS011;58984;51.960;5.582;2022-11-04T17:03:42;6.03;;;4.20;;
71236;SDS011;58984;51.960;5.582;2022-11-04T17:06:08;7.53;;;4.32;;
71236;SDS011;58984;51.960;5.582;2022-11-04T17:08:37;7.47;;;4.97;;
71236;SDS011;58984;51.960;5.582;2022-11-04T17:11:03;5.82;;;4.07;;
71236;SDS011;58984;51.960;5.582;2022-11-04T17:13:29;6.03;;;4.45;;
71236;SDS011;58984;51.960;5.582;2022-11-04T17:15:55;7.40;;;3.95;;
71236;SDS011;58984;51.960;5.582;2022-11-04T17:18:21;7.90;;;4.20;;
71236;SDS011;58984;51.960;5.582;2022-11-04T17:20:48;5.50;;;3.67;;
71236;SDS011;58984;51.960;5.582;2022-11-04T17:23:16;5.80;;;4.25;;
71236;SDS011;58984;51.960;5.582;2022-11-04T17:25:42;6.07;;;3.72;;
71236;SDS011;58984;51.960;5.582;2022-11-04T17:28:08;4.90;;;3.42;;
71236;SDS011;58984;51.960;5.582;2022-11-04T17:30:34;4.65;;;3.45;;
71236;SDS011;58984;51.960;5.582;2022-11-04T17:33:00;6.32;;;3.30;;
71236;SDS011;58984;51.960;5.582;2022-11-04T17:35:26;5.20;;;3.20;;
71236;SDS011;58984;51.960;5.582;2022-11-04T17:37:52;6.35;;;3.47;;
71236;SDS011;58984;51.960;5.582;2022-11-04T17:40:18;5.05;;;3.60;;
71236;SDS011;58984;51.960;5.582;2022-11-04T17:42:45;9.00;;;3.85;;
71236;SDS011;58984;51.960;5.582;2022-11-04T17:45:29;5.35;;;3.67;;
71236;SDS011;58984;51.960;5.582;2022-11-04T17:47:55;5.95;;;3.83;;
71236;SDS011;58984;51.960;5.582;2022-11-04T17:50:21;4.90;;;3.72;;